Parry Sound, Canada
Current Conditions -  °F | °C
As of 12:00 AM on Thursday 23 Oct 2014 (Local Time) from CYQA Reporting Station
Clear Clear  
Wind Chill:   Ceiling: Unl
Heat Index:   Visibility: 9mi
Dew Point:   Wind: 3mph
Humidity: 100%   Direction: 330°NNW
Pressure: 30.24"   Gusts: NA
Location:  45.34°N, 80.04°W
Report Text: CYQA 230400Z AUTO 33003KT 9SM CLR 04/04 A3024 RMK SLP248
Loading
Personal Weather Stations






























Interactive Weather Map
Tropical Storm Tracking
New forecast layout! Learn more

10-Day Weather Forecast

Advertisements
Track Severe Weather on mobile